Terminal Aerodrome Forecast
Issued by NWS

Home | Current Version | Previous Version | Text Only | Print | Product List | Glossary On
Versions: 1 2 3 4 5 6 7 8 9 10 11 12 13 14 15 16 17 18
000
FTUS46 KMFR 231739
TAFOTH
TAF
KOTH 231739Z 2318/2418 36012KT P6SM FEW035
     FM231900 36022G30KT P6SM SKC
     FM240600 36012G19KT P6SM SCT015
     FM241100 36006KT P6SM BKN015
     FM241500 35012G18KT P6SM FEW020=

USA.gov is the U.S. government's official web portal to all federal, state and local government web resources and services.